createdAt,value
2019-03-21T00:00:07.236Z,18.00
2019-03-21T00:02:40.662Z,18.27
2019-03-21T00:05:17.762Z,18.50
2019-03-21T00:07:51.736Z,18.40
2019-03-21T00:11:26.004Z,18.43
2019-03-21T00:14:07.192Z,17.20
2019-03-21T00:16:35.863Z,18.40
2019-03-21T00:19:11.795Z,24.43
2019-03-21T00:21:43.693Z,17.20
2019-03-21T00:24:20.043Z,17.83
2019-03-21T00:26:52.211Z,17.03
2019-03-21T00:29:25.604Z,17.67
2019-03-21T00:31:57.578Z,17.07
2019-03-21T00:34:29.406Z,18.40
2019-03-21T00:37:02.490Z,22.67
2019-03-21T00:39:36.570Z,17.67
2019-03-21T00:42:11.408Z,18.17
2019-03-21T00:44:45.425Z,18.27
2019-03-21T00:47:17.336Z,17.27
2019-03-21T00:49:51.135Z,16.60
2019-03-21T00:52:26.376Z,18.13
2019-03-21T00:54:58.593Z,17.27
2019-03-21T00:57:30.250Z,15.73
2019-03-21T01:00:02.919Z,16.93
2019-03-21T01:02:37.205Z,17.97
2019-03-21T01:05:12.284Z,17.27
2019-03-21T01:07:52.905Z,16.57
2019-03-21T01:10:25.733Z,16.27
2019-03-21T01:12:59.383Z,17.07
2019-03-21T01:15:31.109Z,17.30
2019-03-21T01:18:05.730Z,17.13
2019-03-21T01:20:40.442Z,17.43
2019-03-21T01:23:14.586Z,21.57
2019-03-21T01:25:53.060Z,17.10
2019-03-21T01:28:30.098Z,16.83
2019-03-21T01:31:03.500Z,16.73
2019-03-21T01:33:44.945Z,17.13
2019-03-21T01:36:24.477Z,18.27
2019-03-21T01:38:56.652Z,17.00
2019-03-21T01:41:30.410Z,16.43
2019-03-21T01:44:02.478Z,17.23
2019-03-21T01:46:34.381Z,16.23
2019-03-21T01:49:06.337Z,17.47
2019-03-21T01:51:38.179Z,17.43
2019-03-21T01:54:10.873Z,17.77
2019-03-21T01:56:46.107Z,16.60
2019-03-21T01:59:18.261Z,17.60
2019-03-21T02:01:51.974Z,17.43
2019-03-21T02:04:23.944Z,16.93
2019-03-21T02:07:01.224Z,17.10
2019-03-21T02:09:34.482Z,17.00
2019-03-21T02:12:06.290Z,15.93
2019-03-21T02:14:38.485Z,16.23
2019-03-21T02:17:10.704Z,16.50
2019-03-21T02:19:50.714Z,16.17
2019-03-21T02:22:35.115Z,15.60
2019-03-21T02:25:08.273Z,16.17
2019-03-21T02:27:44.530Z,15.87
2019-03-21T02:30:23.184Z,20.20
2019-03-21T02:33:00.847Z,15.70
2019-03-21T02:35:37.019Z,15.17
2019-03-21T02:38:13.937Z,15.93
2019-03-21T02:40:49.035Z,15.67
2019-03-21T02:43:25.832Z,15.80
2019-03-21T02:45:57.995Z,15.23
2019-03-21T02:48:31.827Z,15.23
2019-03-21T02:51:08.451Z,15.83
2019-03-21T02:53:40.045Z,15.87
2019-03-21T02:56:20.067Z,21.23
2019-03-21T02:59:46.496Z,16.10
2019-03-21T03:02:37.121Z,16.37
2019-03-21T03:04:24.662Z,16.00
2019-03-21T03:07:15.961Z,15.87
2019-03-21T03:09:52.014Z,16.17
2019-03-21T03:12:30.629Z,15.47
2019-03-21T03:15:21.779Z,16.47
2019-03-21T03:18:10.648Z,15.60
2019-03-21T03:20:43.562Z,15.90
2019-03-21T03:23:29.710Z,15.47
2019-03-21T03:26:22.756Z,16.03
2019-03-21T03:29:00.371Z,15.33
2019-03-21T03:31:33.487Z,15.50
2019-03-21T03:34:18.937Z,16.03
2019-03-21T03:37:16.462Z,15.73
2019-03-21T03:39:36.904Z,16.03
2019-03-21T03:42:08.625Z,15.80
2019-03-21T03:44:46.835Z,16.70
2019-03-21T03:47:51.450Z,16.53
2019-03-21T03:50:30.406Z,16.53
2019-03-21T03:53:34.751Z,16.40
2019-03-21T03:56:21.761Z,15.83
2019-03-21T03:58:58.205Z,15.77
2019-03-21T04:01:54.058Z,15.43
2019-03-21T04:04:21.471Z,14.63
2019-03-21T04:07:03.226Z,16.37
2019-03-21T04:09:46.911Z,15.17
2019-03-21T04:12:32.438Z,15.77
2019-03-21T04:15:17.967Z,15.53
2019-03-21T04:17:57.720Z,15.73
2019-03-21T04:21:01.083Z,15.17
2019-03-21T04:23:47.808Z,15.17
2019-03-21T04:26:31.437Z,14.97
2019-03-21T04:29:30.488Z,15.20
2019-03-21T04:32:04.306Z,14.80
2019-03-21T04:34:36.095Z,15.23
2019-03-21T04:37:15.947Z,14.47
2019-03-21T04:39:55.557Z,14.90
2019-03-21T04:43:38.316Z,14.07
2019-03-21T04:48:32.804Z,14.17
2019-03-21T04:51:14.140Z,13.23
2019-03-21T04:53:57.148Z,14.17
2019-03-21T04:57:03.077Z,13.47
2019-03-21T04:59:46.988Z,13.27
2019-03-21T05:02:24.615Z,13.20
2019-03-21T05:05:09.224Z,13.80
2019-03-21T05:07:45.339Z,13.50
2019-03-21T05:13:25.372Z,17.27
2019-03-21T05:16:14.051Z,13.57
2019-03-21T05:19:07.935Z,13.77
2019-03-21T05:22:33.402Z,13.23
2019-03-21T05:25:18.495Z,12.63
2019-03-21T05:28:09.427Z,13.70
2019-03-21T05:31:15.207Z,12.67
2019-03-21T05:34:00.639Z,12.23
2019-03-21T05:36:55.343Z,12.23
2019-03-21T05:39:36.273Z,13.13
2019-03-21T05:42:27.560Z,12.50
2019-03-21T05:45:10.768Z,12.30
2019-03-21T05:47:56.703Z,12.03
2019-03-21T05:50:44.403Z,15.60
2019-03-21T05:53:31.072Z,13.17
2019-03-21T05:56:07.333Z,12.13
2019-03-21T05:58:47.696Z,11.93
2019-03-21T06:02:11.148Z,13.20
2019-03-21T06:04:32.971Z,12.47
2019-03-21T06:07:51.586Z,11.77
2019-03-21T06:10:31.501Z,12.00
2019-03-21T06:13:09.595Z,12.33
2019-03-21T06:15:45.467Z,10.87
2019-03-21T06:19:13.389Z,12.07
2019-03-21T06:22:45.383Z,11.73
2019-03-21T06:26:25.286Z,12.30
2019-03-21T06:28:58.709Z,11.50
2019-03-21T06:31:30.579Z,10.70
2019-03-21T06:34:04.939Z,11.63
2019-03-21T06:36:37.412Z,11.70
2019-03-21T06:39:13.390Z,11.23
2019-03-21T06:41:46.561Z,10.53
2019-03-21T06:44:18.368Z,11.83
2019-03-21T06:46:50.128Z,11.27
2019-03-21T06:49:23.836Z,11.87
2019-03-21T06:51:56.882Z,12.23
2019-03-21T06:54:28.571Z,12.00
2019-03-21T06:57:02.569Z,11.87
2019-03-21T06:59:38.413Z,11.47
2019-03-21T07:02:55.185Z,11.77
2019-03-21T07:06:08.788Z,11.67
2019-03-21T07:08:40.717Z,11.37
2019-03-21T07:11:12.617Z,14.83
2019-03-21T07:13:47.194Z,11.43
2019-03-21T07:16:24.588Z,12.63
2019-03-21T07:18:59.895Z,12.43
2019-03-21T07:21:32.676Z,12.17
2019-03-21T07:24:05.424Z,11.90
2019-03-21T07:26:37.255Z,12.83
2019-03-21T07:29:08.875Z,13.03
2019-03-21T07:31:41.224Z,12.67
2019-03-21T07:34:17.698Z,13.27
2019-03-21T07:36:52.824Z,12.93
2019-03-21T07:39:45.054Z,14.07
2019-03-21T07:42:17.568Z,13.80
2019-03-21T07:44:55.631Z,13.23
2019-03-21T07:47:42.207Z,18.77
2019-03-21T07:50:15.050Z,12.90
2019-03-21T07:53:08.675Z,13.20
2019-03-21T07:55:40.754Z,14.13
2019-03-21T07:58:24.898Z,14.00
2019-03-21T08:00:58.752Z,13.57
2019-03-21T08:03:33.542Z,12.67
2019-03-21T08:06:07.067Z,17.67
2019-03-21T08:08:44.089Z,13.57
2019-03-21T08:11:33.383Z,14.40
2019-03-21T08:14:22.995Z,13.20
2019-03-21T08:17:05.294Z,13.97
2019-03-21T08:19:35.228Z,13.60
2019-03-21T08:22:10.223Z,13.50
2019-03-21T08:24:42.790Z,13.47
2019-03-21T08:27:17.646Z,13.13
2019-03-21T08:29:52.697Z,13.57
2019-03-21T08:32:46.192Z,14.13
2019-03-21T08:35:18.285Z,16.35
2019-03-21T08:37:51.887Z,13.33
2019-03-21T08:40:29.035Z,15.27
2019-03-21T08:43:02.685Z,12.90
2019-03-21T08:45:37.127Z,12.93
2019-03-21T08:48:25.577Z,12.63
2019-03-21T08:51:08.610Z,13.67
2019-03-21T08:53:37.685Z,14.40
2019-03-21T08:56:14.136Z,13.23
2019-03-21T08:58:51.471Z,13.40
2019-03-21T09:01:27.147Z,13.13
2019-03-21T09:08:20.202Z,13.07
